sensor_id;sensor_type;location;lat;lon;timestamp;pressure;altitude;pressure_sealevel;temperature;humidity
40117;BME280;25829;50.228;18.936;2023-02-02T00:02:48;97713.16;;;0.61;78.58
40117;BME280;25829;50.228;18.936;2023-02-02T00:05:51;97718.50;;;0.59;78.45
40117;BME280;25829;50.228;18.936;2023-02-02T00:08:52;97714.31;;;0.58;78.30
40117;BME280;25829;50.228;18.936;2023-02-02T00:12:04;97703.44;;;0.55;78.32
40117;BME280;25829;50.228;18.936;2023-02-02T00:15:14;97717.06;;;0.49;78.71
40117;BME280;25829;50.228;18.936;2023-02-02T00:18:17;97714.78;;;0.46;78.52
40117;BME280;25829;50.228;18.936;2023-02-02T00:21:18;97724.19;;;0.47;78.88
40117;BME280;25829;50.228;18.936;2023-02-02T00:24:30;97724.19;;;0.47;78.46
40117;BME280;25829;50.228;18.936;2023-02-02T00:27:34;97720.13;;;0.44;78.76
40117;BME280;25829;50.228;18.936;2023-02-02T00:30:39;97722.06;;;0.42;78.78
40117;BME280;25829;50.228;18.936;2023-02-02T00:33:49;97736.97;;;0.40;78.43
40117;BME280;25829;50.228;18.936;2023-02-02T00:36:51;97740.38;;;0.32;78.77
40117;BME280;25829;50.228;18.936;2023-02-02T00:39:51;97749.94;;;0.32;79.07
40117;BME280;25829;50.228;18.936;2023-02-02T00:42:52;97743.28;;;0.29;79.09
40117;BME280;25829;50.228;18.936;2023-02-02T00:45:56;97746.69;;;0.30;79.18
40117;BME280;25829;50.228;18.936;2023-02-02T00:48:59;97742.31;;;0.30;79.62
40117;BME280;25829;50.228;18.936;2023-02-02T00:52:00;97747.50;;;0.30;79.01
40117;BME280;25829;50.228;18.936;2023-02-02T00:55:08;97747.34;;;0.32;79.40
40117;BME280;25829;50.228;18.936;2023-02-02T00:58:13;97743.66;;;0.34;79.37
40117;BME280;25829;50.228;18.936;2023-02-02T01:01:16;97743.66;;;0.34;79.46
40117;BME280;25829;50.228;18.936;2023-02-02T01:04:19;97743.47;;;0.36;79.30
40117;BME280;25829;50.228;18.936;2023-02-02T01:07:20;97746.88;;;0.36;79.22
40117;BME280;25829;50.228;18.936;2023-02-02T01:10:21;97742.81;;;0.34;79.16
40117;BME280;25829;50.228;18.936;2023-02-02T01:13:21;97753.03;;;0.35;79.39
40117;BME280;25829;50.228;18.936;2023-02-02T01:16:22;97753.53;;;0.39;79.53
40117;BME280;25829;50.228;18.936;2023-02-02T01:19:24;97761.00;;;0.42;78.87
40117;BME280;25829;50.228;18.936;2023-02-02T01:22:26;97756.63;;;0.43;79.03
40117;BME280;25829;50.228;18.936;2023-02-02T01:25:27;97755.63;;;0.44;79.32
40117;BME280;25829;50.228;18.936;2023-02-02T01:28:30;97751.75;;;0.48;79.54
40117;BME280;25829;50.228;18.936;2023-02-02T01:31:39;97767.66;;;0.53;79.12
40117;BME280;25829;50.228;18.936;2023-02-02T01:34:52;97762.63;;;0.59;78.89
40117;BME280;25829;50.228;18.936;2023-02-02T01:37:55;97760.69;;;0.62;79.00
40117;BME280;25829;50.228;18.936;2023-02-02T01:40:57;97763.13;;;0.63;78.89
40117;BME280;25829;50.228;18.936;2023-02-02T01:44:00;97764.91;;;0.63;78.50
40117;BME280;25829;50.228;18.936;2023-02-02T01:47:07;97768.47;;;0.62;79.03
40117;BME280;25829;50.228;18.936;2023-02-02T01:50:09;97773.81;;;0.60;78.92
40117;BME280;25829;50.228;18.936;2023-02-02T01:53:11;97768.63;;;0.60;79.33
40117;BME280;25829;50.228;18.936;2023-02-02T01:56:19;97763.13;;;0.63;79.28
40117;BME280;25829;50.228;18.936;2023-02-02T01:59:21;97762.00;;;0.66;79.02
40117;BME280;25829;50.228;18.936;2023-02-02T02:02:24;97755.03;;;0.66;78.80
40117;BME280;25829;50.228;18.936;2023-02-02T02:05:30;97765.22;;;0.68;78.73
40117;BME280;25829;50.228;18.936;2023-02-02T02:08:39;97772.06;;;0.69;78.62
40117;BME280;25829;50.228;18.936;2023-02-02T02:11:41;97777.75;;;0.72;79.02
40117;BME280;25829;50.228;18.936;2023-02-02T02:14:44;97774.97;;;0.74;78.68
40117;BME280;25829;50.228;18.936;2023-02-02T02:18:35;97776.59;;;0.75;79.20
40117;BME280;25829;50.228;18.936;2023-02-02T02:25:42;97782.75;;;0.82;78.85
40117;BME280;25829;50.228;18.936;2023-02-02T02:29:38;97791.03;;;0.77;79.00
40117;BME280;25829;50.228;18.936;2023-02-02T02:32:53;97795.44;;;0.77;79.53
40117;BME280;25829;50.228;18.936;2023-02-02T02:36:16;97795.44;;;0.77;78.55
40117;BME280;25829;50.228;18.936;2023-02-02T02:39:26;97792.16;;;0.75;79.27
40117;BME280;25829;50.228;18.936;2023-02-02T02:42:41;97809.38;;;0.76;79.37
40117;BME280;25829;50.228;18.936;2023-02-02T02:45:45;97813.28;;;0.80;79.00
40117;BME280;25829;50.228;18.936;2023-02-02T02:48:47;97814.72;;;0.82;79.12
40117;BME280;25829;50.228;18.936;2023-02-02T02:51:51;97808.56;;;0.83;78.89
40117;BME280;25829;50.228;18.936;2023-02-02T02:55:07;97808.09;;;0.80;78.83
40117;BME280;25829;50.228;18.936;2023-02-02T02:58:23;97809.38;;;0.84;78.92
40117;BME280;25829;50.228;18.936;2023-02-02T03:01:59;97817.84;;;0.86;78.91
40117;BME280;25829;50.228;18.936;2023-02-02T03:08:37;97821.06;;;0.88;79.00
40117;BME280;25829;50.228;18.936;2023-02-02T03:11:40;97822.53;;;0.91;79.24
40117;BME280;25829;50.228;18.936;2023-02-02T03:14:40;97819.63;;;0.94;79.52
40117;BME280;25829;50.228;18.936;2023-02-02T03:17:42;97818.47;;;0.96;79.37
40117;BME280;25829;50.228;18.936;2023-02-02T03:20:44;97823.19;;;1.01;79.18
40117;BME280;25829;50.228;18.936;2023-02-02T03:23:45;97823.34;;;1.07;78.83
40117;BME280;25829;50.228;18.936;2023-02-02T03:26:45;97813.44;;;1.11;79.13
40117;BME280;25829;50.228;18.936;2023-02-02T03:29:46;97823.19;;;1.17;78.81
40117;BME280;25829;50.228;18.936;2023-02-02T03:32:48;97830.16;;;1.17;78.53
40117;BME280;25829;50.228;18.936;2023-02-02T03:35:50;97823.19;;;1.17;79.14
40117;BME280;25829;50.228;18.936;2023-02-02T03:38:50;97836.81;;;1.19;78.93
40117;BME280;25829;50.228;18.936;2023-02-02T03:41:51;97835.34;;;1.17;78.44
40117;BME280;25829;50.228;18.936;2023-02-02T03:44:52;97826.59;;;1.10;79.02
40117;BME280;25829;50.228;18.936;2023-02-02T03:47:56;97822.19;;;1.10;78.67
40117;BME280;25829;50.228;18.936;2023-02-02T03:50:57;97821.38;;;1.10;78.96
40117;BME280;25829;50.228;18.936;2023-02-02T03:53:57;97827.72;;;1.15;79.10
40117;BME280;25829;50.228;18.936;2023-02-02T03:56:58;97824.94;;;1.17;78.75
40117;BME280;25829;50.228;18.936;2023-02-02T03:59:59;97825.28;;;1.22;78.87
40117;BME280;25829;50.228;18.936;2023-02-02T04:03:00;97825.94;;;1.24;78.73
40117;BME280;25829;50.228;18.936;2023-02-02T04:06:00;97820.59;;;1.25;78.61
40117;BME280;25829;50.228;18.936;2023-02-02T04:09:01;97815.06;;;1.28;78.52
40117;BME280;25829;50.228;18.936;2023-02-02T04:12:02;97809.53;;;1.31;78.47
40117;BME280;25829;50.228;18.936;2023-02-02T04:15:04;97808.56;;;1.33;77.96
40117;BME280;25829;50.228;18.936;2023-02-02T04:18:05;97807.25;;;1.28;78.39
40117;BME280;25829;50.228;18.936;2023-02-02T04:21:09;97808.41;;;1.26;78.57
40117;BME280;25829;50.228;18.936;2023-02-02T04:24:13;97807.25;;;1.28;78.18
40117;BME280;25829;50.228;18.936;2023-02-02T04:27:14;97802.06;;;1.28;78.12
40117;BME280;25829;50.228;18.936;2023-02-02T04:30:15;97804.66;;;1.28;78.16
40117;BME280;25829;50.228;18.936;2023-02-02T04:33:16;97801.09;;;1.29;78.60
40117;BME280;25829;50.228;18.936;2023-02-02T04:36:17;97796.22;;;1.26;78.13
40117;BME280;25829;50.228;18.936;2023-02-02T04:39:18;97791.81;;;1.27;78.37
40117;BME280;25829;50.228;18.936;2023-02-02T04:46:06;97798.19;;;1.24;78.30
40117;BME280;25829;50.228;18.936;2023-02-02T04:49:10;97805.00;;;1.25;78.13
40117;BME280;25829;50.228;18.936;2023-02-02T04:52:20;97807.41;;;1.27;78.17
40117;BME280;25829;50.228;18.936;2023-02-02T04:55:21;97800.41;;;1.27;77.92
40117;BME280;25829;50.228;18.936;2023-02-02T04:58:22;97802.41;;;1.25;78.01
40117;BME280;25829;50.228;18.936;2023-02-02T05:01:26;97799.78;;;1.25;77.75
40117;BME280;25829;50.228;18.936;2023-02-02T05:04:28;97799.31;;;1.22;78.05
40117;BME280;25829;50.228;18.936;2023-02-02T05:07:29;97801.91;;;1.22;77.74
40117;BME280;25829;50.228;18.936;2023-02-02T05:10:30;97803.69;;;1.21;77.33
40117;BME280;25829;50.228;18.936;2023-02-02T05:13:31;97802.91;;;1.21;77.48
40117;BME280;25829;50.228;18.936;2023-02-02T05:16:32;97804.50;;;1.22;77.35
40117;BME280;25829;50.228;18.936;2023-02-02T05:19:32;97800.28;;;1.21;77.65
40117;BME280;25829;50.228;18.936;2023-02-02T05:22:33;97803.84;;;1.20;77.13
40117;BME280;25829;50.228;18.936;2023-02-02T05:25:51;97795.44;;;1.18;77.34
40117;BME280;25829;50.228;18.936;2023-02-02T05:28:53;97787.63;;;1.18;77.03
40117;BME280;25829;50.228;18.936;2023-02-02T05:31:56;97790.06;;;1.19;76.81
40117;BME280;25829;50.228;18.936;2023-02-02T05:35:01;97782.25;;;1.19;76.81
40117;BME280;25829;50.228;18.936;2023-02-02T05:38:01;97791.50;;;1.22;76.97
40117;BME280;25829;50.228;18.936;2023-02-02T05:41:05;97794.59;;;1.25;76.65
40117;BME280;25829;50.228;18.936;2023-02-02T05:44:12;97790.22;;;1.26;76.86
40117;BME280;25829;50.228;18.936;2023-02-02T05:47:16;97795.59;;;1.24;76.97
40117;BME280;25829;50.228;18.936;2023-02-02T05:50:17;97787.59;;;1.26;76.82
40117;BME280;25829;50.228;18.936;2023-02-02T05:53:20;97784.19;;;1.25;76.92
40117;BME280;25829;50.228;18.936;2023-02-02T05:56:24;97791.00;;;1.26;76.64
40117;BME280;25829;50.228;18.936;2023-02-02T05:59:25;97780.47;;;1.28;76.47
40117;BME280;25829;50.228;18.936;2023-02-02T06:02:30;97785.97;;;1.33;76.61
40117;BME280;25829;50.228;18.936;2023-02-02T06:05:31;97781.75;;;1.32;76.76
40117;BME280;25829;50.228;18.936;2023-02-02T06:08:35;97793.63;;;1.35;76.21
40117;BME280;25829;50.228;18.936;2023-02-02T06:11:38;97780.16;;;1.31;76.20
40117;BME280;25829;50.228;18.936;2023-02-02T06:14:39;97784.03;;;1.27;75.83
40117;BME280;25829;50.228;18.936;2023-02-02T06:17:41;97786.31;;;1.22;75.58
40117;BME280;25829;50.228;18.936;2023-02-02T06:20:42;97786.00;;;1.25;76.13
40117;BME280;25829;50.228;18.936;2023-02-02T06:23:43;97785.81;;;1.26;76.38
40117;BME280;25829;50.228;18.936;2023-02-02T06:26:45;97794.28;;;1.28;76.02
40117;BME280;25829;50.228;18.936;2023-02-02T06:29:46;97800.41;;;1.27;76.08
40117;BME280;25829;50.228;18.936;2023-02-02T06:32:47;97804.00;;;1.26;75.98
40117;BME280;25829;50.228;18.936;2023-02-02T06:35:47;97805.97;;;1.24;75.82
40117;BME280;25829;50.228;18.936;2023-02-02T06:38:49;97812.44;;;1.20;76.21
40117;BME280;25829;50.228;18.936;2023-02-02T06:41:50;97807.09;;;1.22;76.47
40117;BME280;25829;50.228;18.936;2023-02-02T06:44:51;97815.72;;;1.22;76.27
40117;BME280;25829;50.228;18.936;2023-02-02T06:47:52;97810.69;;;1.21;76.27
40117;BME280;25829;50.228;18.936;2023-02-02T06:50:56;97806.31;;;1.21;76.55
40117;BME280;25829;50.228;18.936;2023-02-02T06:54:00;97803.84;;;1.20;76.82
40117;BME280;25829;50.228;18.936;2023-02-02T06:57:03;97795.56;;;1.16;76.50
40117;BME280;25829;50.228;18.936;2023-02-02T07:00:10;97802.56;;;1.16;77.07
40117;BME280;25829;50.228;18.936;2023-02-02T07:03:21;97799.47;;;1.12;77.05
40117;BME280;25829;50.228;18.936;2023-02-02T07:06:24;97797.06;;;1.11;77.10
40117;BME280;25829;50.228;18.936;2023-02-02T07:09:26;97793.47;;;1.12;77.11
40117;BME280;25829;50.228;18.936;2023-02-02T07:12:27;97792.19;;;1.07;77.11
40117;BME280;25829;50.228;18.936;2023-02-02T07:15:38;97789.91;;;1.04;77.40
40117;BME280;25829;50.228;18.936;2023-02-02T07:18:43;97790.41;;;1.00;77.23
40117;BME280;25829;50.228;18.936;2023-02-02T07:21:49;97788.44;;;0.94;77.83
40117;BME280;25829;50.228;18.936;2023-02-02T07:24:50;97793.47;;;0.95;77.67
40117;BME280;25829;50.228;18.936;2023-02-02T07:27:52;97792.16;;;0.99;77.85
40117;BME280;25829;50.228;18.936;2023-02-02T07:30:53;97803.22;;;1.01;77.66
40117;BME280;25829;50.228;18.936;2023-02-02T07:33:59;97798.69;;;1.03;77.84
40117;BME280;25829;50.228;18.936;2023-02-02T07:37:04;97796.72;;;1.05;77.70
40117;BME280;25829;50.228;18.936;2023-02-02T07:40:09;97800.13;;;1.06;77.43
40117;BME280;25829;50.228;18.936;2023-02-02T07:43:16;97802.72;;;1.06;77.42
40117;BME280;25829;50.228;18.936;2023-02-02T07:46:28;97798.34;;;1.15;77.84
40117;BME280;25829;50.228;18.936;2023-02-02T07:49:52;97794.63;;;1.17;77.67
40117;BME280;25829;50.228;18.936;2023-02-02T07:53:13;97791.66;;;1.20;77.46
40117;BME280;25829;50.228;18.936;2023-02-02T07:56:29;97797.19;;;1.25;77.25
40117;BME280;25829;50.228;18.936;2023-02-02T07:59:35;97799.28;;;1.30;77.48
40117;BME280;25829;50.228;18.936;2023-02-02T08:02:38;97804.50;;;1.30;77.64
40117;BME280;25829;50.228;18.936;2023-02-02T08:05:39;97800.59;;;1.26;77.39
40117;BME280;25829;50.228;18.936;2023-02-02T08:08:43;97801.72;;;1.23;77.46
40117;BME280;25829;50.228;18.936;2023-02-02T08:11:50;97802.41;;;1.25;77.47
40117;BME280;25829;50.228;18.936;2023-02-02T08:14:51;97806.78;;;1.25;77.18
40117;BME280;25829;50.228;18.936;2023-02-02T08:17:52;97798.19;;;1.24;77.33
40117;BME280;25829;50.228;18.936;2023-02-02T08:20:57;97803.69;;;1.21;77.29
40117;BME280;25829;50.228;18.936;2023-02-02T08:23:58;97808.91;;;1.21;77.75
40117;BME280;25829;50.228;18.936;2023-02-02T08:27:17;97807.25;;;1.20;77.78
40117;BME280;25829;50.228;18.936;2023-02-02T08:35:10;97809.84;;;1.20;78.49
40117;BME280;25829;50.228;18.936;2023-02-02T08:38:33;97806.78;;;1.25;78.73
40117;BME280;25829;50.228;18.936;2023-02-02T08:45:49;97815.22;;;1.35;78.48
40117;BME280;25829;50.228;18.936;2023-02-02T08:48:56;97818.63;;;1.36;78.41
40117;BME280;25829;50.228;18.936;2023-02-02T08:52:09;97819.59;;;1.35;78.25
40117;BME280;25829;50.228;18.936;2023-02-02T08:55:25;97823.00;;;1.35;78.65
40117;BME280;25829;50.228;18.936;2023-02-02T08:58:27;97836.97;;;1.26;78.82
40117;BME280;25829;50.228;18.936;2023-02-02T09:01:33;97840.88;;;1.22;79.09
40117;BME280;25829;50.228;18.936;2023-02-02T09:04:37;97846.22;;;1.20;79.08
40117;BME280;25829;50.228;18.936;2023-02-02T09:07:38;97850.78;;;1.18;79.50
40117;BME280;25829;50.228;18.936;2023-02-02T09:10:48;97855.31;;;1.16;79.66
40117;BME280;25829;50.228;18.936;2023-02-02T09:13:53;97854.22;;;1.11;79.48
40117;BME280;25829;50.228;18.936;2023-02-02T09:16:54;97861.34;;;1.08;80.52
40117;BME280;25829;50.228;18.936;2023-02-02T09:19:58;97850.78;;;1.10;80.28
40117;BME280;25829;50.228;18.936;2023-02-02T09:22:59;97862.31;;;1.07;80.37
40117;BME280;25829;50.228;18.936;2023-02-02T09:29:27;97862.63;;;1.04;80.12
40117;BME280;25829;50.228;18.936;2023-02-02T09:32:38;97871.06;;;1.06;80.49
40117;BME280;25829;50.228;18.936;2023-02-02T09:35:39;97880.81;;;1.04;80.30
40117;BME280;25829;50.228;18.936;2023-02-02T09:38:46;97882.44;;;1.05;80.20
40117;BME280;25829;50.228;18.936;2023-02-02T09:45:55;97875.94;;;1.10;80.64
40117;BME280;25829;50.228;18.936;2023-02-02T09:49:14;97892.81;;;1.14;80.47
40117;BME280;25829;50.228;18.936;2023-02-02T09:59:49;97902.28;;;1.31;80.42
40117;BME280;25829;50.228;18.936;2023-02-02T10:03:05;97910.06;;;1.31;80.55
40117;BME280;25829;50.228;18.936;2023-02-02T10:06:43;97906.00;;;1.28;80.74
40117;BME280;25829;50.228;18.936;2023-02-02T10:13:53;97914.13;;;1.34;80.65
40117;BME280;25829;50.228;18.936;2023-02-02T10:24:22;97921.09;;;1.41;80.96
40117;BME280;25829;50.228;18.936;2023-02-02T10:35:37;97936.72;;;1.66;81.24
40117;BME280;25829;50.228;18.936;2023-02-02T10:54:30;97950.34;;;1.76;80.22
40117;BME280;25829;50.228;18.936;2023-02-02T10:57:23;97961.06;;;1.81;80.25
40117;BME280;25829;50.228;18.936;2023-02-02T11:03:53;97948.38;;;1.94;79.97
40117;BME280;25829;50.228;18.936;2023-02-02T11:07:20;97965.59;;;2.03;79.79
40117;BME280;25829;50.228;18.936;2023-02-02T11:10:33;97975.19;;;2.11;79.47
40117;BME280;25829;50.228;18.936;2023-02-02T11:13:46;97972.41;;;2.13;79.51
40117;BME280;25829;50.228;18.936;2023-02-02T11:17:23;97978.59;;;2.12;79.33
40117;BME280;25829;50.228;18.936;2023-02-02T11:20:34;97971.44;;;2.14;79.75
40117;BME280;25829;50.228;18.936;2023-02-02T11:27:32;97992.22;;;2.30;79.40
40117;BME280;25829;50.228;18.936;2023-02-02T11:30:36;97989.75;;;2.37;79.21
40117;BME280;25829;50.228;18.936;2023-02-02T11:53:28;98005.66;;;2.58;77.98
40117;BME280;25829;50.228;18.936;2023-02-02T11:56:30;98008.44;;;2.57;78.52
40117;BME280;25829;50.228;18.936;2023-02-02T12:03:43;98021.94;;;2.52;77.96
40117;BME280;25829;50.228;18.936;2023-02-02T12:06:59;98016.91;;;2.50;78.06
40117;BME280;25829;50.228;18.936;2023-02-02T12:14:16;98031.88;;;2.48;77.55
40117;BME280;25829;50.228;18.936;2023-02-02T12:17:40;98032.38;;;2.44;77.77
40117;BME280;25829;50.228;18.936;2023-02-02T12:25:01;98050.78;;;2.34;77.13
40117;BME280;25829;50.228;18.936;2023-02-02T12:28:29;98048.16;;;2.34;77.79
40117;BME280;25829;50.228;18.936;2023-02-02T12:42:31;98063.78;;;2.50;77.45
40117;BME280;25829;50.228;18.936;2023-02-02T12:56:30;98077.59;;;2.59;76.82
40117;BME280;25829;50.228;18.936;2023-02-02T13:00:03;98083.91;;;2.65;77.17
40117;BME280;25829;50.228;18.936;2023-02-02T13:10:41;98092.50;;;2.82;76.74
40117;BME280;25829;50.228;18.936;2023-02-02T13:13:44;98086.66;;;2.80;76.43
40117;BME280;25829;50.228;18.936;2023-02-02T13:17:00;98089.25;;;2.80;75.83
40117;BME280;25829;50.228;18.936;2023-02-02T13:20:06;98092.69;;;2.80;75.73
40117;BME280;25829;50.228;18.936;2023-02-02T13:23:27;98099.34;;;2.83;75.96
40117;BME280;25829;50.228;18.936;2023-02-02T13:26:36;98105.69;;;2.88;75.54
40117;BME280;25829;50.228;18.936;2023-02-02T13:29:50;98098.84;;;2.87;75.53
40117;BME280;25829;50.228;18.936;2023-02-02T13:32:57;98110.06;;;2.96;76.10
40117;BME280;25829;50.228;18.936;2023-02-02T13:36:22;98100.44;;;3.05;75.29
40117;BME280;25829;50.228;18.936;2023-02-02T14:02:01;98147.69;;;3.02;74.81
40117;BME280;25829;50.228;18.936;2023-02-02T14:05:05;98148.97;;;3.06;74.72
40117;BME280;25829;50.228;18.936;2023-02-02T14:11:56;98154.00;;;3.07;73.59
40117;BME280;25829;50.228;18.936;2023-02-02T14:15:01;98172.41;;;3.06;73.17
40117;BME280;25829;50.228;18.936;2023-02-02T14:18:02;98174.50;;;3.10;72.78
40117;BME280;25829;50.228;18.936;2023-02-02T14:21:03;98180.88;;;3.16;72.94
40117;BME280;25829;50.228;18.936;2023-02-02T14:31:54;98188.84;;;3.14;71.79
40117;BME280;25829;50.228;18.936;2023-02-02T14:38:55;98197.97;;;3.10;70.35
40117;BME280;25829;50.228;18.936;2023-02-02T14:50:02;98226.19;;;2.98;69.54
40117;BME280;25829;50.228;18.936;2023-02-02T14:53:37;98231.72;;;2.95;68.65
40117;BME280;25829;50.228;18.936;2023-02-02T14:57:03;98237.44;;;2.91;68.81
40117;BME280;25829;50.228;18.936;2023-02-02T15:00:16;98241.00;;;2.90;69.13
40117;BME280;25829;50.228;18.936;2023-02-02T15:03:48;98246.53;;;2.87;68.39
40117;BME280;25829;50.228;18.936;2023-02-02T15:06:51;98263.16;;;2.86;68.92
40117;BME280;25829;50.228;18.936;2023-02-02T15:26:24;98308.56;;;2.67;69.47
40117;BME280;25829;50.228;18.936;2023-02-02T15:29:36;98302.06;;;2.63;69.71
40117;BME280;25829;50.228;18.936;2023-02-02T15:32:50;98313.28;;;2.63;69.02
40117;BME280;25829;50.228;18.936;2023-02-02T15:35:57;98324.03;;;2.60;69.77
40117;BME280;25829;50.228;18.936;2023-02-02T15:39:09;98330.72;;;2.63;70.06
40117;BME280;25829;50.228;18.936;2023-02-02T15:46:10;98338.19;;;2.66;69.66
40117;BME280;25829;50.228;18.936;2023-02-02T15:52:31;98361.78;;;2.64;70.02
40117;BME280;25829;50.228;18.936;2023-02-02T15:55:35;98370.72;;;2.62;70.11
40117;BME280;25829;50.228;18.936;2023-02-02T15:58:37;98375.28;;;2.60;69.74
40117;BME280;25829;50.228;18.936;2023-02-02T16:01:44;98384.22;;;2.57;69.49
40117;BME280;25829;50.228;18.936;2023-02-02T16:04:48;98381.28;;;2.52;69.50
40117;BME280;25829;50.228;18.936;2023-02-02T16:07:49;98393.66;;;2.50;69.80
40117;BME280;25829;50.228;18.936;2023-02-02T16:11:00;98394.28;;;2.52;69.28
40117;BME280;25829;50.228;18.936;2023-02-02T16:14:07;98400.47;;;2.51;69.66
40117;BME280;25829;50.228;18.936;2023-02-02T16:20:21;98425.41;;;2.54;69.16
40117;BME280;25829;50.228;18.936;2023-02-02T16:23:36;98417.28;;;2.57;69.09
40117;BME280;25829;50.228;18.936;2023-02-02T16:26:37;98429.19;;;2.59;69.46
40117;BME280;25829;50.228;18.936;2023-02-02T16:29:39;98439.59;;;2.59;69.83
40117;BME280;25829;50.228;18.936;2023-02-02T16:32:55;98444.16;;;2.65;70.09
40117;BME280;25829;50.228;18.936;2023-02-02T16:36:28;98454.75;;;2.64;70.66
40117;BME280;25829;50.228;18.936;2023-02-02T16:39:29;98457.47;;;2.62;70.80
40117;BME280;25829;50.228;18.936;2023-02-02T16:42:32;98456.84;;;2.60;71.09
40117;BME280;25829;50.228;18.936;2023-02-02T16:49:28;98469.81;;;2.52;71.27
40117;BME280;25829;50.228;18.936;2023-02-02T16:56:39;98497.09;;;2.40;72.08
40117;BME280;25829;50.228;18.936;2023-02-02T16:59:46;98501.81;;;2.36;72.09
40117;BME280;25829;50.228;18.936;2023-02-02T17:02:57;98509.91;;;2.33;71.80
40117;BME280;25829;50.228;18.936;2023-02-02T17:05:59;98518.50;;;2.25;71.06
40117;BME280;25829;50.228;18.936;2023-02-02T17:12:29;98545.38;;;2.08;68.20
40117;BME280;25829;50.228;18.936;2023-02-02T17:15:33;98541.75;;;2.01;67.03
40117;BME280;25829;50.228;18.936;2023-02-02T17:18:34;98552.44;;;1.98;67.90
40117;BME280;25829;50.228;18.936;2023-02-02T17:21:34;98565.59;;;1.96;68.15
40117;BME280;25829;50.228;18.936;2023-02-02T17:24:35;98563.84;;;1.97;67.58
40117;BME280;25829;50.228;18.936;2023-02-02T17:27:36;98569.03;;;1.97;67.29
40117;BME280;25829;50.228;18.936;2023-02-02T17:30:45;98576.84;;;1.97;66.60
40117;BME280;25829;50.228;18.936;2023-02-02T17:33:47;98576.63;;;1.90;66.32
40117;BME280;25829;50.228;18.936;2023-02-02T17:36:47;98579.53;;;1.87;65.95
40117;BME280;25829;50.228;18.936;2023-02-02T17:39:48;98586.19;;;1.90;65.32
40117;BME280;25829;50.228;18.936;2023-02-02T17:42:51;98600.16;;;1.89;65.18
40117;BME280;25829;50.228;18.936;2023-02-02T17:45:52;98598.69;;;1.86;65.62
40117;BME280;25829;50.228;18.936;2023-02-02T17:48:53;98607.75;;;1.82;65.16
40117;BME280;25829;50.228;18.936;2023-02-02T17:51:54;98612.72;;;1.75;64.80
40117;BME280;25829;50.228;18.936;2023-02-02T17:54:54;98614.56;;;1.65;64.50
40117;BME280;25829;50.228;18.936;2023-02-02T17:58:03;98628.47;;;1.56;64.43
40117;BME280;25829;50.228;18.936;2023-02-02T18:01:03;98627.41;;;1.49;64.41
40117;BME280;25829;50.228;18.936;2023-02-02T18:04:04;98636.44;;;1.45;64.52
40117;BME280;25829;50.228;18.936;2023-02-02T18:07:05;98644.31;;;1.35;62.41
40117;BME280;25829;50.228;18.936;2023-02-02T18:10:13;98652.50;;;1.30;63.54
40117;BME280;25829;50.228;18.936;2023-02-02T18:13:16;98658.00;;;1.27;63.17
40117;BME280;25829;50.228;18.936;2023-02-02T18:16:18;98661.44;;;1.28;63.18
40117;BME280;25829;50.228;18.936;2023-02-02T18:19:20;98667.84;;;1.24;62.83
40117;BME280;25829;50.228;18.936;2023-02-02T18:22:22;98681.81;;;1.23;63.42
40117;BME280;25829;50.228;18.936;2023-02-02T18:25:24;98671.16;;;1.26;63.20
40117;BME280;25829;50.228;18.936;2023-02-02T18:28:25;98690.84;;;1.28;63.06
40117;BME280;25829;50.228;18.936;2023-02-02T18:31:25;98689.06;;;1.29;62.99
40117;BME280;25829;50.228;18.936;2023-02-02T18:34:31;98699.03;;;1.34;63.02
40117;BME280;25829;50.228;18.936;2023-02-02T18:37:31;98702.44;;;1.34;62.69
40117;BME280;25829;50.228;18.936;2023-02-02T18:40:32;98710.09;;;1.36;62.29
40117;BME280;25829;50.228;18.936;2023-02-02T18:43:38;98722.56;;;1.32;61.77
40117;BME280;25829;50.228;18.936;2023-02-02T18:46:39;98719.00;;;1.33;62.28
40117;BME280;25829;50.228;18.936;2023-02-02T18:49:40;98726.66;;;1.35;62.82
40117;BME280;25829;50.228;18.936;2023-02-02T18:52:40;98735.41;;;1.34;62.38
40117;BME280;25829;50.228;18.936;2023-02-02T18:55:41;98734.47;;;1.35;63.24
40117;BME280;25829;50.228;18.936;2023-02-02T18:58:42;98745.69;;;1.35;62.77
40117;BME280;25829;50.228;18.936;2023-02-02T19:01:43;98743.09;;;1.35;62.88
40117;BME280;25829;50.228;18.936;2023-02-02T19:04:44;98761.56;;;1.32;61.16
40117;BME280;25829;50.228;18.936;2023-02-02T19:08:04;98762.38;;;1.33;62.39
40117;BME280;25829;50.228;18.936;2023-02-02T19:11:11;98775.81;;;1.28;62.67
40117;BME280;25829;50.228;18.936;2023-02-02T19:14:48;98781.13;;;1.26;61.93
40117;BME280;25829;50.228;18.936;2023-02-02T19:17:46;98795.63;;;1.29;62.56
40117;BME280;25829;50.228;18.936;2023-02-02T19:20:55;98805.88;;;1.30;62.71
40117;BME280;25829;50.228;18.936;2023-02-02T19:24:08;98807.94;;;1.27;62.96
40117;BME280;25829;50.228;18.936;2023-02-02T19:27:24;98812.72;;;1.31;62.81
40117;BME280;25829;50.228;18.936;2023-02-02T19:30:34;98818.47;;;1.25;62.42
40117;BME280;25829;50.228;18.936;2023-02-02T19:36:41;98829.97;;;1.23;63.32
40117;BME280;25829;50.228;18.936;2023-02-02T19:39:46;98831.59;;;1.24;62.98
40117;BME280;25829;50.228;18.936;2023-02-02T19:42:52;98844.31;;;1.27;63.65
40117;BME280;25829;50.228;18.936;2023-02-02T19:46:02;98840.91;;;1.26;63.51
40117;BME280;25829;50.228;18.936;2023-02-02T19:49:31;98845.44;;;1.24;63.31
40117;BME280;25829;50.228;18.936;2023-02-02T19:52:32;98867.03;;;1.25;63.59
40117;BME280;25829;50.228;18.936;2023-02-02T19:55:38;98868.81;;;1.24;63.70
40117;BME280;25829;50.228;18.936;2023-02-02T19:58:40;98881.13;;;1.22;63.70
40117;BME280;25829;50.228;18.936;2023-02-02T20:01:40;98884.00;;;1.19;64.11
40117;BME280;25829;50.228;18.936;2023-02-02T20:04:45;98897.25;;;1.16;63.61
40117;BME280;25829;50.228;18.936;2023-02-02T20:07:48;98894.00;;;1.14;64.00
40117;BME280;25829;50.228;18.936;2023-02-02T20:14:30;98894.38;;;1.19;64.26
40117;BME280;25829;50.228;18.936;2023-02-02T20:17:41;98894.28;;;1.21;64.12